Time;durP1;ratioP1;P1;durP2;ratioP2;P2;SDS_P1;SDS_P2;PMS_P1;PMS_P2;Temp;Humidity;BMP_temperature;BMP_pressure;BME280_temperature;BME280_humidity;BME280_pressure;Samples;Min_cycle;Max_cycle;Signal;HPM_P1;HPM_P2
2023/04/17 00:02:12;;;;;;;9.65;3.47;;;;;;;5.57;67.40;100769.16;1707250;83;21411;-83
2023/04/17 00:05:22;;;;;;;6.72;2.87;;;;;;;5.52;67.93;100775.48;1706391;82;21237;-83
2023/04/17 00:08:27;;;;;;;8.35;3.62;;;;;;;5.46;68.33;100776.48;1706480;84;21523;-83
2023/04/17 00:11:32;;;;;;;11.30;3.70;;;;;;;5.35;68.61;100782.34;1707198;84;21213;-83
2023/04/17 00:14:39;;;;;;;9.25;3.87;;;;;;;5.50;68.31;100772.02;1707807;84;21190;-83
2023/04/17 00:17:45;;;;;;;8.23;3.55;;;;;;;5.83;67.66;100779.12;1707000;83;21284;-83
2023/04/17 00:20:52;;;;;;;9.83;3.75;;;;;;;5.93;67.08;100774.23;1707769;84;21892;-83
2023/04/17 00:23:59;;;;;;;9.68;3.20;;;;;;;5.53;68.52;100773.63;1707927;84;21257;-83
2023/04/17 00:27:05;;;;;;;18.25;4.20;;;;;;;5.98;66.87;100772.01;1707794;84;21242;-83
2023/04/17 00:30:12;;;;;;;7.05;3.00;;;;;;;5.99;66.44;100771.86;1707804;84;21206;-83
2023/04/17 00:33:23;;;;;;;11.95;2.95;;;;;;;6.06;66.04;100769.45;1706868;84;21276;-83
2023/04/17 00:36:30;;;;;;;7.08;2.95;;;;;;;6.09;65.68;100774.62;1707711;84;21190;-83
2023/04/17 00:39:35;;;;;;;8.23;3.62;;;;;;;6.13;65.43;100772.86;1707553;84;21241;-83
2023/04/17 00:42:42;;;;;;;11.35;3.62;;;;;;;5.97;65.65;100767.55;1706447;84;21146;-83
2023/04/17 00:45:49;;;;;;;14.07;3.55;;;;;;;6.34;64.59;100770.56;1706441;84;21199;-84
2023/04/17 00:48:55;;;;;;;12.15;3.45;;;;;;;6.02;64.70;100771.60;1706468;84;21229;-83
2023/04/17 00:52:02;;;;;;;9.68;3.25;;;;;;;5.74;65.79;100766.81;1706411;84;21237;-83
2023/04/17 00:55:07;;;;;;;13.53;4.05;;;;;;;5.59;66.57;100758.16;1706159;84;22147;-83
2023/04/17 00:58:12;;;;;;;11.18;3.62;;;;;;;5.56;66.85;100762.52;1707219;84;21202;-83
2023/04/17 01:01:18;;;;;;;8.75;3.42;;;;;;;5.56;66.66;100759.81;1708005;84;21213;-83
2023/04/17 01:04:23;;;;;;;13.43;3.30;;;;;;;5.52;66.67;100756.98;1707681;83;21828;-83
2023/04/17 01:07:30;;;;;;;10.28;3.45;;;;;;;5.56;66.50;100753.02;1725170;83;21198;-83
2023/04/17 01:10:36;;;;;;;13.32;3.37;;;;;;;5.60;66.31;100753.98;1723838;83;21197;-83
2023/04/17 01:13:52;;;;;;;10.78;3.30;;;;;;;5.52;66.45;100748.35;1771583;81;21715;-83
2023/04/17 01:16:58;;;;;;;9.23;3.45;;;;;;;5.54;66.44;100754.98;1771652;81;21872;-83
2023/04/17 01:20:06;;;;;;;8.58;3.15;;;;;;;5.44;66.68;100745.93;1771672;81;21220;-83
2023/04/17 01:23:12;;;;;;;10.60;4.03;;;;;;;5.39;66.58;100745.83;1734693;82;21165;-83
2023/04/17 01:26:31;;;;;;;15.15;3.85;;;;;;;5.45;66.64;100744.93;1734693;82;21187;-83
2023/04/17 01:29:38;;;;;;;14.15;2.75;;;;;;;5.26;67.41;100737.02;1770369;81;21275;-83
2023/04/17 01:32:42;;;;;;;9.18;3.55;;;;;;;5.20;68.18;100742.98;1733503;82;21137;-83
2023/04/17 01:35:40;;;;;;;8.55;3.33;;;;;;;5.09;68.71;100734.42;1733425;82;21197;-83
2023/04/17 01:38:33;;;;;;;13.03;3.98;;;;;;;5.04;69.15;100733.09;1771366;81;21706;-83
2023/04/17 01:41:39;;;;;;;14.63;4.00;;;;;;;4.90;69.96;100730.69;1771517;81;21180;-83
2023/04/17 01:44:44;;;;;;;8.43;3.62;;;;;;;4.70;70.45;100731.84;1770975;81;21176;-83
2023/04/17 01:47:51;;;;;;;13.85;3.80;;;;;;;4.60;71.23;100737.67;1770943;81;21191;-83
2023/04/17 01:50:56;;;;;;;10.18;4.42;;;;;;;4.60;71.32;100722.77;1771162;81;21180;-83
2023/04/17 01:54:03;;;;;;;6.90;3.60;;;;;;;4.66;71.33;100729.05;1734574;82;21185;-83
2023/04/17 01:57:08;;;;;;;7.80;3.70;;;;;;;4.65;71.34;100730.02;1734590;82;21796;-83
2023/04/17 02:00:14;;;;;;;7.30;3.98;;;;;;;4.54;71.75;100739.55;1770106;81;21223;-83
2023/04/17 02:03:20;;;;;;;11.45;3.50;;;;;;;4.29;72.78;100739.36;1744608;79;21180;-83
2023/04/17 02:06:26;;;;;;;6.97;3.40;;;;;;;4.23;73.32;100740.70;1771178;81;21815;-83
2023/04/17 02:09:31;;;;;;;7.10;3.50;;;;;;;4.18;73.52;100739.36;1770735;81;21212;-83
2023/04/17 02:12:38;;;;;;;9.48;3.70;;;;;;;4.05;73.94;100736.81;1770110;81;21208;-83
2023/04/17 02:15:47;;;;;;;10.85;3.52;;;;;;;4.06;74.19;100731.26;1770141;81;21228;-83
2023/04/17 02:18:54;;;;;;;8.30;3.22;;;;;;;4.01;74.33;100736.69;1771347;81;21207;-83
2023/04/17 02:22:00;;;;;;;8.68;3.45;;;;;;;4.00;74.38;100736.29;1734651;82;21188;-83
2023/04/17 02:25:05;;;;;;;6.00;2.87;;;;;;;3.89;74.64;100739.01;1734689;82;21174;-83
2023/04/17 02:28:11;;;;;;;11.30;3.50;;;;;;;3.91;74.58;100737.92;1771709;81;21153;-83
2023/04/17 02:31:17;;;;;;;10.00;4.30;;;;;;;4.03;73.96;100742.82;1771780;81;21738;-83
2023/04/17 02:34:22;;;;;;;6.83;4.17;;;;;;;3.98;74.16;100740.48;1770433;81;21799;-83
2023/04/17 02:37:28;;;;;;;11.35;4.03;;;;;;;4.00;74.07;100733.58;1733697;82;21189;-83
2023/04/17 02:40:35;;;;;;;16.62;3.80;;;;;;;4.03;74.09;100733.34;1733663;82;21233;-83
2023/04/17 02:43:40;;;;;;;8.78;3.90;;;;;;;4.13;73.71;100723.48;1771763;81;21171;-84
2023/04/17 02:46:46;;;;;;;11.05;3.85;;;;;;;4.14;73.09;100735.17;1734709;82;21189;-84
2023/04/17 02:49:55;;;;;;;7.53;4.10;;;;;;;4.00;73.66;100730.88;1734121;82;21201;-84
2023/04/17 02:53:00;;;;;;;7.95;3.45;;;;;;;3.93;73.93;100735.08;1734514;82;21197;-84
2023/04/17 02:56:06;;;;;;;7.75;3.55;;;;;;;3.98;73.87;100737.77;1770246;79;21767;-84
2023/04/17 02:59:13;;;;;;;9.53;3.70;;;;;;;3.97;73.62;100737.41;1771298;81;21219;-84
2023/04/17 03:02:21;;;;;;;9.83;3.65;;;;;;;3.81;74.31;100731.03;1734642;82;21229;-84
2023/04/17 03:05:29;;;;;;;8.50;4.10;;;;;;;3.93;74.26;100733.23;1733249;82;21189;-84
2023/04/17 03:08:37;;;;;;;9.45;4.08;;;;;;;3.87;74.18;100732.37;1715174;82;21232;-84
2023/04/17 03:11:43;;;;;;;6.45;3.22;;;;;;;4.05;73.72;100734.95;1712384;84;21264;-84
2023/04/17 03:14:48;;;;;;;10.70;3.92;;;;;;;4.04;73.76;100743.18;1711752;84;21213;-84
2023/04/17 03:17:55;;;;;;;11.05;4.67;;;;;;;4.00;73.62;100736.29;1711694;84;21211;-84
2023/04/17 03:21:01;;;;;;;5.62;3.45;;;;;;;3.87;74.09;100736.44;1711860;84;21241;-84
2023/04/17 03:24:10;;;;;;;8.90;4.03;;;;;;;3.92;74.04;100740.12;1711744;84;21200;-84
2023/04/17 03:27:16;;;;;;;9.93;3.85;;;;;;;4.00;73.68;100740.34;1713080;84;21190;-84
2023/04/17 03:30:21;;;;;;;7.62;3.90;;;;;;;4.03;73.15;100736.91;1712445;84;21229;-84
2023/04/17 03:33:28;;;;;;;14.63;4.42;;;;;;;4.17;72.51;100738.50;1712755;84;21189;-84
2023/04/17 03:36:35;;;;;;;6.92;3.50;;;;;;;4.29;71.55;100717.20;1713019;84;21873;-84
2023/04/17 03:39:41;;;;;;;8.03;3.80;;;;;;;4.43;71.14;100720.12;1713040;84;21197;-84
2023/04/17 03:42:49;;;;;;;10.40;3.33;;;;;;;4.63;70.21;100720.31;1713075;84;21820;-84
2023/04/17 03:46:08;;;;;;;7.05;3.42;;;;;;;4.58;69.57;100731.53;1713132;84;21241;-84
2023/04/17 03:49:13;;;;;;;10.05;3.65;;;;;;;4.67;69.20;100724.00;1712986;84;21178;-84
2023/04/17 03:52:18;;;;;;;13.58;3.90;;;;;;;4.58;69.22;100724.27;1711823;84;21172;-84
2023/04/17 03:55:26;;;;;;;10.40;3.37;;;;;;;4.61;69.01;100727.19;1713008;82;21284;-84
2023/04/17 03:58:33;;;;;;;9.60;3.25;;;;;;;4.68;68.53;100725.70;1713017;84;21189;-84
2023/04/17 04:01:39;;;;;;;7.47;3.55;;;;;;;4.90;67.60;100729.34;1712048;84;21820;-84
2023/04/17 04:04:46;;;;;;;10.13;4.67;;;;;;;4.97;67.35;100719.67;1712765;84;21210;-85
2023/04/17 04:07:53;;;;;;;9.83;3.87;;;;;;;5.06;66.24;100714.83;1716323;82;21236;-84
2023/04/17 04:11:02;;;;;;;15.60;3.60;;;;;;;5.18;66.28;100719.22;1770906;79;21735;-84
2023/04/17 04:14:08;;;;;;;8.10;3.27;;;;;;;5.46;65.43;100724.94;1734427;82;21181;-84
2023/04/17 04:17:14;;;;;;;10.00;3.55;;;;;;;5.28;65.04;100716.57;1734098;82;21245;-84
2023/04/17 04:20:21;;;;;;;9.88;3.30;;;;;;;5.41;64.69;100717.70;1771061;81;21180;-83
2023/04/17 04:23:36;;;;;;;8.88;3.05;;;;;;;5.33;64.89;100719.24;1735003;82;21201;-84
2023/04/17 04:26:46;;;;;;;7.30;3.22;;;;;;;5.54;63.68;100724.64;1733680;81;21237;-83
2023/04/17 04:29:51;;;;;;;6.28;3.00;;;;;;;5.56;63.21;100715.89;1770750;81;21149;-83
2023/04/17 04:32:59;;;;;;;15.53;3.30;;;;;;;5.72;63.21;100709.10;1771525;81;21212;-84
2023/04/17 04:36:05;;;;;;;7.00;3.05;;;;;;;5.74;63.40;100710.70;1734803;82;21169;-83
2023/04/17 04:39:19;;;;;;;13.70;2.98;;;;;;;5.84;61.98;100691.23;1734674;82;21198;-83
2023/04/17 04:42:22;;;;;;;7.75;3.08;;;;;;;5.86;61.41;100695.16;1770323;79;21254;-83
2023/04/17 04:45:30;;;;;;;4.97;2.45;;;;;;;5.86;61.02;100704.17;1734135;82;21237;-83
2023/04/17 04:48:36;;;;;;;8.20;2.95;;;;;;;6.02;59.50;100700.11;1734309;82;21165;-83
2023/04/17 04:51:41;;;;;;;14.95;3.40;;;;;;;6.16;58.52;100694.30;1770570;81;21235;-83
2023/04/17 04:54:49;;;;;;;6.10;2.47;;;;;;;6.31;58.40;100694.28;1734438;82;21213;-83
2023/04/17 04:57:54;;;;;;;8.53;2.35;;;;;;;6.47;57.58;100687.44;1733186;81;22495;-84
2023/04/17 05:01:00;;;;;;;8.10;2.60;;;;;;;6.62;56.83;100689.59;1771353;81;21493;-83
2023/04/17 05:04:09;;;;;;;6.58;2.47;;;;;;;7.01;55.09;100699.62;1771292;81;21188;-84
2023/04/17 05:07:17;;;;;;;11.12;2.90;;;;;;;7.16;54.30;100696.84;1771425;81;21287;-84
2023/04/17 05:10:23;;;;;;;6.50;2.40;;;;;;;7.38;52.67;100706.02;1770853;80;21180;-83
2023/04/17 05:13:29;;;;;;;5.85;2.30;;;;;;;7.64;51.30;100706.77;1787425;79;21255;-83
2023/04/17 05:16:39;;;;;;;6.05;2.30;;;;;;;7.75;50.56;100709.80;1809471;79;21176;-83
2023/04/17 05:19:46;;;;;;;5.00;2.30;;;;;;;7.82;49.17;100706.85;1775540;79;21179;-84
2023/04/17 05:22:47;;;;;;;11.15;2.42;;;;;;;8.05;47.86;100711.42;1763259;79;21702;-83
2023/04/17 05:25:52;;;;;;;8.85;2.27;;;;;;;8.17;47.99;100714.29;1781824;79;22017;-84
2023/04/17 05:28:58;;;;;;;7.20;1.95;;;;;;;8.56;46.93;100710.00;1787987;79;21158;-83
2023/04/17 05:32:04;;;;;;;8.10;3.15;;;;;;;8.64;45.56;100718.28;1775870;79;21775;-84
2023/04/17 05:35:18;;;;;;;3.12;1.95;;;;;;;8.63;45.61;100728.84;1770532;79;21188;-84
2023/04/17 05:38:24;;;;;;;5.42;1.98;;;;;;;8.76;44.83;100717.57;1771668;79;21287;-84
2023/04/17 05:41:31;;;;;;;5.35;2.42;;;;;;;8.58;43.76;100740.21;1779201;80;21842;-84
2023/04/17 05:44:36;;;;;;;10.65;1.90;;;;;;;8.50;43.92;100720.16;1773302;79;21199;-84
2023/04/17 05:47:42;;;;;;;8.35;2.33;;;;;;;8.46;44.57;100715.52;1781688;79;21204;-84
2023/04/17 05:50:49;;;;;;;4.22;1.87;;;;;;;8.60;45.15;100715.50;1777059;79;21130;-84
2023/04/17 06:08:37;;;;;;;8.48;2.62;;;;;;;9.56;41.77;100697.95;1840962;76;28240;-87
2023/04/17 06:11:44;;;;;;;6.90;2.35;;;;;;;9.60;42.27;100708.91;1830825;76;21437;-87
2023/04/17 06:14:50;;;;;;;10.08;2.52;;;;;;;9.64;40.78;100697.47;1834378;76;21160;-87
2023/04/17 06:17:56;;;;;;;7.78;2.40;;;;;;;9.74;40.19;100706.95;1838126;76;21200;-87
2023/04/17 06:21:02;;;;;;;5.55;2.05;;;;;;;10.04;39.58;100705.57;1826795;76;21333;-88
2023/04/17 06:24:08;;;;;;;7.50;2.02;;;;;;;9.89;37.76;100708.58;1817672;76;21220;-87
2023/04/17 06:27:13;;;;;;;6.80;2.10;;;;;;;10.08;39.03;100708.84;1795257;79;21172;-87
2023/04/17 06:30:19;;;;;;;13.30;2.87;;;;;;;10.15;37.37;100689.38;1754675;80;21199;-87
2023/04/17 06:33:25;;;;;;;13.72;1.95;;;;;;;10.14;36.69;100691.78;1766443;80;22513;-87
2023/04/17 06:36:32;;;;;;;4.17;1.77;;;;;;;10.30;36.71;100685.54;1742210;80;21248;-86
2023/04/17 06:39:38;;;;;;;7.47;2.02;;;;;;;10.48;35.33;100687.14;1764637;80;21229;-87
2023/04/17 06:42:44;;;;;;;7.08;2.10;;;;;;;10.43;35.56;100688.67;1792203;78;21220;-87
2023/04/17 06:45:50;;;;;;;10.68;1.90;;;;;;;10.59;36.71;100674.20;1826311;76;21142;-87
2023/04/17 06:48:58;;;;;;;12.60;2.10;;;;;;;10.84;35.10;100658.16;1832574;76;21201;-87
2023/04/17 06:52:03;;;;;;;5.83;2.02;;;;;;;10.86;37.54;100679.35;1828110;76;21834;-87
2023/04/17 06:55:08;;;;;;;4.33;1.80;;;;;;;11.18;35.77;100663.97;1823791;76;21174;-86
2023/04/17 06:58:15;;;;;;;3.95;1.62;;;;;;;11.08;37.11;100664.67;1838408;76;21215;-87
2023/04/17 07:01:21;;;;;;;7.83;2.22;;;;;;;11.28;34.52;100659.17;1841275;75;21216;-87
2023/04/17 07:04:28;;;;;;;5.92;1.87;;;;;;;11.34;36.02;100665.34;1842779;76;21223;-87
2023/04/17 07:07:34;;;;;;;6.58;1.62;;;;;;;11.51;36.69;100665.65;1853044;76;21224;-87
2023/04/17 07:10:39;;;;;;;8.43;1.95;;;;;;;11.61;35.30;100664.09;1845243;76;21184;-87
2023/04/17 07:13:45;;;;;;;25.50;2.20;;;;;;;11.80;35.48;100658.73;1841775;76;21207;-87
2023/04/17 07:16:51;;;;;;;6.95;2.20;;;;;;;11.97;33.18;100656.31;1833843;77;21298;-87
2023/04/17 07:19:57;;;;;;;3.67;1.72;;;;;;;11.86;33.10;100641.64;1839054;76;21200;-87
2023/04/17 07:23:02;;;;;;;15.25;2.12;;;;;;;12.10;33.67;100647.53;1829928;76;21199;-87
2023/04/17 07:26:08;;;;;;;6.70;1.60;;;;;;;12.18;32.52;100683.12;1847015;76;21192;-87
2023/04/17 07:29:13;;;;;;;7.35;1.70;;;;;;;12.38;33.57;100634.20;1834821;76;22296;-87
2023/04/17 07:32:23;;;;;;;16.07;2.22;;;;;;;12.62;31.37;100642.80;1842025;76;21981;-87
2023/04/17 07:35:28;;;;;;;8.90;2.00;;;;;;;12.60;31.92;100642.09;1843652;76;21250;-87
2023/04/17 07:38:35;;;;;;;4.25;1.62;;;;;;;12.79;31.10;100649.00;1846139;76;21204;-87
2023/04/17 07:41:40;;;;;;;14.20;2.02;;;;;;;12.79;31.46;100635.28;1810846;76;21261;-87
2023/04/17 07:44:46;;;;;;;6.60;1.90;;;;;;;12.66;29.95;100652.89;1841331;76;21144;-87
2023/04/17 07:47:52;;;;;;;7.67;1.85;;;;;;;12.69;31.04;100631.92;1847098;76;21429;-86
2023/04/17 07:51:00;;;;;;;12.37;1.62;;;;;;;12.80;32.47;100620.55;1840037;76;21861;-87
2023/04/17 07:54:05;;;;;;;9.15;2.25;;;;;;;13.00;30.62;100614.88;1776372;80;21224;-87
2023/04/17 07:57:11;;;;;;;5.97;1.87;;;;;;;13.19;28.98;100599.77;1799484;78;21189;-87
2023/04/17 08:00:20;;;;;;;6.95;2.58;;;;;;;13.30;28.30;100613.08;1772795;79;21161;-87
2023/04/17 08:03:26;;;;;;;7.50;2.00;;;;;;;13.40;28.32;100586.70;1772590;79;21159;-87
2023/04/17 08:06:32;;;;;;;9.40;2.10;;;;;;;13.45;27.81;100602.63;1768251;79;21208;-87
2023/04/17 08:09:38;;;;;;;5.97;2.27;;;;;;;13.68;28.83;100617.14;1834613;76;21213;-87
2023/04/17 08:12:43;;;;;;;10.15;1.47;;;;;;;13.57;29.83;100602.50;1834081;76;21200;-87
2023/04/17 08:15:50;;;;;;;8.18;2.00;;;;;;;13.78;28.87;100605.37;1845104;76;21189;-87
2023/04/17 08:18:58;;;;;;;13.65;2.25;;;;;;;13.47;27.96;100612.92;1845757;76;21258;-87
2023/04/17 08:22:08;;;;;;;4.33;1.82;;;;;;;13.87;26.69;100603.34;1825404;76;21204;-87
2023/04/17 08:25:15;;;;;;;6.65;2.20;;;;;;;13.37;27.83;100594.49;1778738;79;21770;-86
2023/04/17 08:28:20;;;;;;;4.12;1.80;;;;;;;13.92;27.57;100583.52;1776285;79;21264;-87
2023/04/17 08:31:27;;;;;;;9.90;2.05;;;;;;;14.15;29.60;100580.64;1785448;78;21219;-87
2023/04/17 08:34:34;;;;;;;7.65;1.72;;;;;;;14.29;27.11;100614.15;1770022;79;21262;-87
2023/04/17 08:37:41;;;;;;;10.32;2.33;;;;;;;14.40;26.74;100576.52;1783868;79;21217;-87
2023/04/17 08:40:50;;;;;;;8.45;2.10;;;;;;;14.53;27.23;100577.19;1756660;79;21217;-87
2023/04/17 08:43:56;;;;;;;4.95;1.70;;;;;;;14.55;27.15;100573.20;1840025;76;21270;-87
2023/04/17 08:47:07;;;;;;;6.97;2.20;;;;;;;14.20;26.77;100567.16;1837618;76;21197;-87
2023/04/17 08:50:20;;;;;;;13.00;2.47;;;;;;;14.27;26.61;100577.20;1838808;76;21920;-87
2023/04/17 08:53:26;;;;;;;11.83;2.10;;;;;;;14.20;27.76;100559.75;1840939;76;21899;-86
2023/04/17 08:56:32;;;;;;;5.87;2.08;;;;;;;14.25;28.59;100550.92;1833414;76;21262;-87
2023/04/17 08:59:38;;;;;;;6.30;1.60;;;;;;;14.65;29.40;100550.02;1830516;76;21232;-87
2023/04/17 09:03:00;;;;;;;8.80;1.82;;;;;;;14.76;27.15;100565.98;1839793;76;21165;-87
2023/04/17 09:06:10;;;;;;;7.87;2.10;;;;;;;14.77;27.65;100558.93;1840389;76;22338;-87
2023/04/17 09:09:17;;;;;;;7.70;2.17;;;;;;;15.03;27.68;100554.69;1854250;76;22190;-87
2023/04/17 09:12:22;;;;;;;7.78;2.17;;;;;;;15.28;27.80;100546.81;1832911;76;21220;-88
2023/04/17 09:15:28;;;;;;;6.67;1.82;;;;;;;15.58;26.75;100570.36;1767754;78;21240;-87
2023/04/17 09:18:36;;;;;;;11.28;2.17;;;;;;;15.76;26.49;100509.69;1785789;79;21221;-87
2023/04/17 09:21:41;;;;;;;8.58;2.00;;;;;;;15.74;25.80;100531.11;1781591;79;21220;-86
2023/04/17 09:24:47;;;;;;;13.50;1.98;;;;;;;15.54;26.17;100527.70;1756141;79;21528;-87
2023/04/17 09:27:54;;;;;;;9.63;1.98;;;;;;;15.69;26.68;100534.48;1798299;79;21886;-88
2023/04/17 09:31:00;;;;;;;8.45;2.05;;;;;;;15.91;26.46;100517.31;1776238;80;21315;-87
2023/04/17 09:34:16;;;;;;;10.93;1.52;;;;;;;15.86;25.74;100509.33;1762632;79;21220;-88
2023/04/17 09:37:22;;;;;;;5.20;2.10;;;;;;;15.96;26.33;100521.67;1772586;79;21201;-87
2023/04/17 09:40:29;;;;;;;11.85;2.15;;;;;;;15.81;27.05;100511.33;1791834;79;21224;-87
2023/04/17 09:43:36;;;;;;;7.80;2.40;;;;;;;15.55;26.98;100520.27;1758722;79;21860;-87
2023/04/17 09:46:47;;;;;;;9.70;2.05;;;;;;;15.54;26.99;100522.72;1735288;81;21424;-87
2023/04/17 09:49:54;;;;;;;9.80;1.72;;;;;;;15.66;27.99;100520.25;1761471;80;21236;-87
2023/04/17 09:53:05;;;;;;;16.62;2.25;;;;;;;15.81;25.29;100527.88;1761969;80;21237;-87
2023/04/17 09:56:12;;;;;;;7.70;2.07;;;;;;;15.69;23.52;100524.83;1776518;79;21201;-87
2023/04/17 09:59:18;;;;;;;6.45;1.87;;;;;;;15.88;25.72;100503.91;1752476;79;21438;-88
2023/04/17 10:02:25;;;;;;;8.50;1.67;;;;;;;16.07;25.72;100525.20;1741270;80;21815;-88
2023/04/17 10:05:35;;;;;;;7.97;1.52;;;;;;;16.19;25.35;100536.51;1765749;79;21228;-88
2023/04/17 10:08:42;;;;;;;5.60;1.60;;;;;;;16.32;25.90;100517.20;1769483;79;21320;-88
2023/04/17 10:11:54;;;;;;;9.75;1.90;;;;;;;16.32;24.19;100528.23;1768864;79;21228;-88
2023/04/17 10:15:02;;;;;;;11.50;2.22;;;;;;;16.21;24.26;100529.39;1807099;78;21204;-87
2023/04/17 10:18:28;;;;;;;19.23;2.33;;;;;;;16.34;24.44;100510.11;1792600;78;21847;-87
2023/04/17 10:21:36;;;;;;;7.00;1.90;;;;;;;16.46;26.67;100532.41;1783014;79;21214;-87
2023/04/17 10:24:50;;;;;;;3.70;1.17;;;;;;;16.65;25.24;100512.26;1783214;79;21747;-88
2023/04/17 10:28:01;;;;;;;8.50;2.17;;;;;;;16.52;23.53;100518.64;1797624;79;21163;-88
2023/04/17 10:31:06;;;;;;;12.25;1.90;;;;;;;16.50;23.53;100515.22;1805295;78;21171;-87
2023/04/17 10:34:13;;;;;;;2.92;1.45;;;;;;;16.49;25.31;100514.91;1781567;79;21172;-87
2023/04/17 10:37:21;;;;;;;8.08;2.30;;;;;;;16.47;23.84;100508.77;1778813;79;21232;-88
2023/04/17 10:40:31;;;;;;;4.15;1.62;;;;;;;16.53;23.33;100532.76;1770684;79;21825;-87
2023/04/17 10:43:36;;;;;;;6.63;1.60;;;;;;;16.64;25.53;100515.24;1765130;80;21294;-87
2023/04/17 10:46:42;;;;;;;9.13;1.92;;;;;;;16.70;24.14;100499.20;1771288;80;21987;-87
2023/04/17 10:50:03;;;;;;;16.93;2.02;;;;;;;16.86;24.56;100502.44;1831343;78;21276;-87
2023/04/17 10:53:09;;;;;;;13.68;2.05;;;;;;;17.10;23.48;100496.78;1830241;76;21192;-87
2023/04/17 10:56:20;;;;;;;4.37;1.62;;;;;;;17.04;22.63;100514.23;1814677;76;21086;-87
2023/04/17 10:59:28;;;;;;;6.75;1.52;;;;;;;17.01;23.53;100499.98;1827520;78;21217;-87
2023/04/17 11:02:41;;;;;;;11.70;1.80;;;;;;;16.98;24.20;100496.25;1834219;78;21203;-87
2023/04/17 11:05:52;;;;;;;7.92;1.92;;;;;;;17.02;23.43;100514.95;1833955;77;21831;-87
2023/04/17 11:08:58;;;;;;;6.65;1.32;;;;;;;17.05;24.90;100509.55;1818113;77;21225;-87
2023/04/17 11:12:05;;;;;;;7.22;1.80;;;;;;;17.08;24.82;100503.06;1823653;78;21768;-88
2023/04/17 11:15:12;;;;;;;13.30;1.52;;;;;;;17.23;23.44;100472.96;1830123;77;21206;-88
2023/04/17 11:18:17;;;;;;;4.62;1.70;;;;;;;17.24;23.91;100478.80;1836700;77;21193;-88
2023/04/17 11:21:22;;;;;;;11.63;1.80;;;;;;;17.48;24.81;100497.45;1840416;77;21805;-88
2023/04/17 11:24:36;;;;;;;5.80;1.35;;;;;;;17.46;23.59;100494.06;1839911;77;21210;-88
2023/04/17 11:27:41;;;;;;;6.15;1.85;;;;;;;17.36;23.05;100481.20;1834307;76;21249;-88
2023/04/17 11:30:46;;;;;;;15.05;1.92;;;;;;;17.54;24.37;100473.06;1837891;77;21219;-88
2023/04/17 11:33:54;;;;;;;9.15;2.00;;;;;;;17.66;22.77;100475.17;1822592;77;21184;-87
2023/04/17 11:36:59;;;;;;;5.40;1.60;;;;;;;17.86;23.32;100478.72;1835406;76;21243;-88
2023/04/17 11:40:10;;;;;;;7.00;1.85;;;;;;;17.76;23.05;100469.51;1823685;78;21214;-87
2023/04/17 11:43:16;;;;;;;4.87;1.90;;;;;;;17.74;22.57;100462.52;1822898;77;21207;-88
2023/04/17 11:46:21;;;;;;;7.62;1.57;;;;;;;17.79;22.82;100465.47;1813794;77;21140;-87
2023/04/17 11:49:35;;;;;;;10.05;1.52;;;;;;;17.94;22.86;100467.41;1843602;77;21179;-87
2023/04/17 11:52:41;;;;;;;8.30;1.60;;;;;;;17.75;21.53;100446.22;1842351;77;21246;-87
2023/04/17 11:55:47;;;;;;;6.22;1.72;;;;;;;17.90;22.60;100454.23;1841556;77;21153;-87
2023/04/17 11:59:03;;;;;;;3.58;1.40;;;;;;;18.16;22.17;100461.52;1829972;77;21824;-87
2023/04/17 12:02:11;;;;;;;12.95;1.95;;;;;;;18.29;22.00;100435.14;1832287;77;21253;-87
2023/04/17 12:05:22;;;;;;;4.80;1.52;;;;;;;17.85;22.39;100454.89;1833846;76;21223;-87
2023/04/17 12:08:28;;;;;;;6.30;1.47;;;;;;;18.16;23.33;100461.52;1829049;77;21176;-87
2023/04/17 12:11:38;;;;;;;7.87;1.80;;;;;;;17.95;22.58;100444.73;1844745;76;21149;-87
2023/04/17 12:14:43;;;;;;;;;;;;;;;18.03;22.77;100427.34;1840208;77;21264;-87
2023/04/17 12:17:51;;;;;;;10.38;1.70;;;;;;;18.13;22.96;100437.38;1799619;78;20203;-87
2023/04/17 12:20:57;;;;;;;11.30;1.60;;;;;;;18.11;22.67;100456.14;1771423;80;21839;-87
2023/04/17 12:24:05;;;;;;;8.80;1.80;;;;;;;17.99;23.90;100428.84;1784767;79;21193;-87
2023/04/17 12:27:12;;;;;;;3.08;1.30;;;;;;;18.21;24.02;100443.70;1776303;79;21269;-87
2023/04/17 12:30:19;;;;;;;8.63;1.80;;;;;;;18.22;23.35;100437.13;1793124;79;21327;-87
2023/04/17 12:33:25;;;;;;;7.22;1.90;;;;;;;18.05;22.48;100434.87;1802122;78;21196;-87
2023/04/17 12:36:30;;;;;;;8.35;1.52;;;;;;;17.98;22.84;100416.63;1789959;79;21180;-87
2023/04/17 12:39:36;;;;;;;6.83;1.62;;;;;;;17.94;23.97;100438.35;1782271;79;21213;-87
2023/04/17 12:42:41;;;;;;;5.60;1.40;;;;;;;18.23;24.00;100424.97;1774610;79;21189;-87
2023/04/17 12:45:48;;;;;;;8.98;1.77;;;;;;;18.23;24.09;100411.13;1775270;79;21760;-87
2023/04/17 12:48:58;;;;;;;8.95;1.90;;;;;;;18.29;23.11;100379.22;1783114;79;21240;-87
2023/04/17 12:52:03;;;;;;;8.18;1.72;;;;;;;18.35;23.55;100404.65;1786109;78;21234;-87
2023/04/17 12:55:10;;;;;;;8.70;1.47;;;;;;;18.20;23.95;100406.87;1780857;79;21235;-87
2023/04/17 12:58:16;;;;;;;19.35;1.20;;;;;;;18.13;23.88;100402.78;1789178;79;21346;-87
2023/04/17 13:01:24;;;;;;;9.55;1.85;;;;;;;18.17;24.16;100411.49;1787581;79;21228;-87
2023/04/17 13:04:32;;;;;;;7.75;2.08;;;;;;;18.24;23.83;100405.36;1774644;80;21237;-88
2023/04/17 13:07:38;;;;;;;6.80;1.95;;;;;;;18.25;24.17;100402.05;1771672;80;21272;-87
2023/04/17 13:10:44;;;;;;;7.67;1.35;;;;;;;18.37;24.04;100386.41;1774136;80;21261;-88
2023/04/17 13:13:48;;;;;;;6.83;1.87;;;;;;;18.42;24.45;100407.36;1777767;80;21274;-88
2023/04/17 13:16:55;;;;;;;14.98;2.40;;;;;;;18.49;23.93;100422.02;1772571;80;21337;-87
2023/04/17 13:19:59;;;;;;;10.53;1.75;;;;;;;18.39;23.47;100397.56;1789789;79;21195;-88
2023/04/17 13:23:06;;;;;;;3.90;1.62;;;;;;;18.42;24.15;100410.66;1742589;80;21211;-88
2023/04/17 13:26:12;;;;;;;15.45;1.65;;;;;;;18.35;23.56;100416.27;1757354;80;21214;-87
2023/04/17 13:29:17;;;;;;;11.90;1.72;;;;;;;18.25;24.11;100413.97;1826388;77;21182;-88
2023/04/17 13:32:24;;;;;;;11.03;1.90;;;;;;;18.21;24.82;100433.51;1825216;77;22565;-88
2023/04/17 13:35:28;;;;;;;7.62;1.67;;;;;;;18.26;25.79;100416.23;1834899;77;21744;-88
2023/04/17 13:38:35;;;;;;;6.97;1.57;;;;;;;18.11;25.48;100405.45;1820355;77;21153;-87
2023/04/17 13:41:40;;;;;;;8.78;1.75;;;;;;;18.08;25.33;100415.06;1835532;77;21288;-87
2023/04/17 13:44:46;;;;;;;8.55;1.72;;;;;;;18.08;25.66;100415.06;1828074;77;21201;-87
2023/04/17 13:47:50;;;;;;;19.25;1.98;;;;;;;17.97;25.62;100414.37;1827698;77;21257;-87
2023/04/17 13:50:56;;;;;;;9.58;1.30;;;;;;;18.12;25.90;100421.84;1826949;77;21563;-87
2023/04/17 13:54:02;;;;;;;15.08;2.37;;;;;;;18.06;26.03;100419.11;1824072;77;21233;-87
2023/04/17 13:57:08;;;;;;;15.00;2.00;;;;;;;18.13;26.19;100413.85;1829140;77;21198;-87
2023/04/17 14:00:14;;;;;;;7.03;1.45;;;;;;;18.16;26.40;100418.61;1825643;77;21280;-87
2023/04/17 14:03:19;;;;;;;12.20;2.90;;;;;;;18.00;26.88;100411.16;1822281;77;21343;-87
2023/04/17 14:06:26;;;;;;;5.45;1.55;;;;;;;17.92;26.47;100403.66;1832728;78;21218;-88
2023/04/17 14:09:33;;;;;;;15.72;2.08;;;;;;;18.00;26.96;100412.55;1832689;77;21193;-87
2023/04/17 14:12:38;;;;;;;15.63;1.75;;;;;;;17.83;26.88;100414.13;1835418;78;21202;-87
2023/04/17 14:15:43;;;;;;;18.90;1.98;;;;;;;17.60;27.29;100410.52;1827890;77;21764;-87
2023/04/17 14:18:48;;;;;;;13.40;2.10;;;;;;;17.52;28.12;100409.38;1831375;77;21519;-87
2023/04/17 14:21:56;;;;;;;9.95;2.10;;;;;;;17.50;28.23;100401.31;1832236;77;21241;-87
2023/04/17 14:25:02;;;;;;;10.03;2.08;;;;;;;17.64;27.75;100406.22;1827237;77;21206;-87
2023/04/17 14:28:08;;;;;;;8.58;1.90;;;;;;;17.52;28.56;100412.14;1832854;78;21206;-87
2023/04/17 14:31:15;;;;;;;10.38;1.95;;;;;;;17.49;28.54;100409.80;1835027;77;21270;-87
2023/04/17 14:34:21;;;;;;;16.05;2.15;;;;;;;17.45;28.04;100403.86;1828110;77;21229;-87
2023/04/17 14:37:26;;;;;;;9.88;1.95;;;;;;;17.54;28.12;100387.88;1825319;77;21266;-87
2023/04/17 14:40:32;;;;;;;12.20;1.80;;;;;;;17.82;27.86;100391.16;1837198;77;21245;-87
2023/04/17 14:43:37;;;;;;;11.00;1.80;;;;;;;17.85;28.33;100402.33;1833811;77;21521;-87
2023/04/17 14:46:41;;;;;;;14.47;1.95;;;;;;;17.85;28.52;100405.09;1824355;77;21228;-88